METAR Data
IDs: Format: Raw Decoded Include TAF

Data at: 1720 UTC 19 Sep 2018

KGAG 191653Z AUTO 20021G29KT 10SM CLR 30/18 A2994 RMK AO2 PK WND 21029/1648 SLP108 T03000178
KGAG 191553Z AUTO 20018G26KT 10SM CLR 29/18 A2995 RMK AO2 PK WND 19026/1545 SLP111 T02890178
KGAG 191453Z AUTO 20015KT 10SM CLR 27/18 A2994 RMK AO2 SLP110 T02670183 50002
KGAG 191353Z AUTO 19011KT 10SM CLR 24/18 A2995 RMK AO2 SLP114 T02440178
KGAG 191253Z AUTO 18008KT 10SM CLR 21/17 A2994 RMK AO2 SLP112 T02110172
KGAG 191153Z AUTO 17011KT 10SM CLR 21/17 A2994 RMK AO2 SLP107 T02110172 10250 20211 56001
KGAG 191053Z AUTO 17010KT 10SM CLR 22/17 A2994 RMK AO2 SLP107 T02220172
KGAG 190953Z AUTO 19009KT 10SM CLR 22/17 A2993 RMK AO2 SLP104 T02220172
KGAG 190853Z AUTO 18008KT 10SM CLR 22/18 A2994 RMK AO2 SLP106 T02220178 53002
KGAG 190753Z AUTO 18010KT 10SM CLR 23/18 A2993 RMK AO2 SLP102 T02330178
KGAG 190653Z AUTO 19014KT 10SM CLR 24/18 A2992 RMK AO2 SLP100 T02440178
KGAG 190553Z AUTO 17011KT 10SM CLR 24/18 A2993 RMK AO2 SLP103 T02440178 10311 20244 403440206 50005
KGAG 190453Z AUTO 16010KT 10SM CLR 24/18 A2994 RMK AO2 SLP106 T02440183
KGAG 190353Z AUTO 17010KT 10SM CLR 25/18 A2992 RMK AO2 SLP103 T02500178
KGAG 190253Z AUTO 17009KT 10SM CLR 26/17 A2992 RMK AO2 SLP100 T02560172 53015
KGAG 190153Z AUTO 16008KT 10SM CLR 26/17 A2989 RMK AO2 SLP094 T02560172
KGAG 190053Z AUTO 18009KT 10SM CLR 28/17 A2988 RMK AO2 SLP089 T02830172
KGAG 182353Z AUTO 20015G21KT 10SM CLR 32/17 A2987 RMK AO2 SLP084 T03170167 10344 20317 55005
KGAG 182253Z AUTO 20014G22KT 10SM CLR 33/17 A2987 RMK AO2 PK WND 19027/2159 SLP083 T03280172
KGAG 182153Z AUTO 18019G23KT 10SM CLR 33/17 A2987 RMK AO2 PK WND 21027/2109 SLP085 T03330167
KGAG 182053Z AUTO 20014G22KT 10SM CLR 34/17 A2988 RMK AO2 PK WND 20027/2013 SLP086 T03390167 56026
KGAG 181953Z AUTO 21017G23KT 10SM CLR 34/17 A2990 RMK AO2 SLP094 T03390172
KGAG 181853Z AUTO 19015G23KT 10SM FEW060 33/18 A2994 RMK AO2 SLP103 T03330178
KGAG 181753Z AUTO 21013KT 10SM FEW050 32/18 A2997 RMK AO2 SLP115 T03220178 10322 20206 58013
KGAG 181653Z AUTO 20013KT 10SM CLR 31/19 A2999 RMK AO2 SLP125 T03110189
KGAG 181553Z AUTO 22011KT 10SM CLR 29/19 A3001 RMK AO2 SLP130 T02940189
KGAG 181453Z AUTO 21014KT 10SM CLR 27/19 A3000 RMK AO2 SLP131 T02670189 50005
KGAG 181353Z AUTO 20013KT 10SM CLR 24/18 A3001 RMK AO2 SLP133 T02440183
KGAG 181253Z AUTO 19010KT 10SM CLR 21/18 A3000 RMK AO2 SLP133 T02110178
KGAG 181153Z AUTO 19009KT 10SM CLR 21/18 A2999 RMK AO2 SLP126 T02060178 10244 20206 53004
KGAG 181053Z AUTO 18009KT 10SM CLR 21/18 A2998 RMK AO2 SLP123 T02110178
KGAG 180953Z AUTO 19008KT 10SM CLR 21/17 A2998 RMK AO2 SLP120 T02110172
KGAG 180853Z AUTO 19009KT 10SM CLR 22/17 A2998 RMK AO2 SLP119 T02220172 53001
KGAG 180753Z AUTO 18011KT 10SM CLR 23/17 A2997 RMK AO2 SLP117 T02280172
KGAG 180653Z AUTO 18013KT 10SM CLR 24/17 A2997 RMK AO2 SLP117 T02390172
KGAG 180553Z AUTO 18014KT 10SM CLR 24/17 A2997 RMK AO2 SLP118 T02440172 10311 20244 403440211 51003